Time;durP1;ratioP1;P1;durP2;ratioP2;P2;SDS_P1;SDS_P2;PMS_P1;PMS_P2;Temp;Humidity;BMP_temperature;BMP_pressure;BME280_temperature;BME280_humidity;BME280_pressure;Samples;Min_cycle;Max_cycle;Signal;HPM_P1;HPM_P2
2022/01/23 00:02:27;;;;;;;14.40;12.13;;;10.40;59.80;;;;;;4965812;28;20482;-42
2022/01/23 00:04:52;;;;;;;13.60;10.73;;;10.40;59.80;;;;;;4959662;28;20874;-42
2022/01/23 00:07:20;;;;;;;15.27;10.57;;;10.30;59.70;;;;;;4964554;28;20453;-41
2022/01/23 00:09:46;;;;;;;13.80;10.10;;;10.40;59.70;;;;;;4965517;28;20230;-42
2022/01/23 00:12:16;;;;;;;12.80;10.23;;;10.40;59.50;;;;;;4968009;28;20443;-42
2022/01/23 00:17:33;;;;;;;12.30;9.73;;;10.40;59.60;;;;;;4970892;28;20497;-41
2022/01/23 00:20:00;;;;;;;15.00;11.40;;;10.40;59.60;;;;;;4971789;28;20438;-41
2022/01/23 00:22:37;;;;;;;15.90;11.27;;;10.40;59.50;;;;;;4967307;28;20457;-42
2022/01/23 00:30:33;;;;;;;15.20;11.47;;;10.40;59.80;;;;;;4971096;28;20497;-42
2022/01/23 00:33:02;;;;;;;13.77;10.80;;;10.40;59.70;;;;;;4968190;28;20930;-41
2022/01/23 00:35:29;;;;;;;16.27;10.87;;;10.40;59.80;;;;;;4972786;28;20203;-41
2022/01/23 00:37:55;;;;;;;13.73;10.60;;;10.40;59.80;;;;;;4972660;28;20581;-41
2022/01/23 00:40:21;;;;;;;14.50;11.50;;;10.40;59.90;;;;;;4969685;28;20890;-42
2022/01/23 00:42:48;;;;;;;16.80;13.03;;;10.40;60.00;;;;;;4968089;28;20506;-42
2022/01/23 00:47:46;;;;;;;15.33;12.17;;;10.30;60.00;;;;;;4970295;28;20537;-42
2022/01/23 00:50:11;;;;;;;18.67;12.97;;;10.40;59.90;;;;;;4969156;28;20585;-41
2022/01/23 00:52:37;;;;;;;14.90;12.80;;;10.40;59.80;;;;;;4970765;28;20291;-42
2022/01/23 00:55:04;;;;;;;15.13;10.87;;;10.40;59.80;;;;;;4970898;28;20245;-42
2022/01/23 00:57:31;;;;;;;15.77;11.57;;;10.40;59.90;;;;;;4972836;28;20203;-41
2022/01/23 00:59:56;;;;;;;17.93;12.60;;;10.40;59.90;;;;;;4971766;28;20443;-41
2022/01/23 01:02:22;;;;;;;19.33;12.97;;;10.30;60.00;;;;;;4969084;28;20438;-42
2022/01/23 01:04:47;;;;;;;18.40;12.50;;;10.40;60.20;;;;;;4971454;28;20222;-41
2022/01/23 01:07:13;;;;;;;17.37;12.77;;;10.30;60.10;;;;;;4969618;28;20198;-42
2022/01/23 01:09:40;;;;;;;21.07;13.30;;;10.30;60.20;;;;;;4970378;28;20254;-42
2022/01/23 01:12:08;;;;;;;15.50;11.10;;;10.30;60.30;;;;;;4968953;28;20255;-42
2022/01/23 01:17:15;;;;;;;22.40;13.90;;;10.30;60.30;;;;;;4968624;28;20442;-41
2022/01/23 01:35:38;;;;;;;14.10;11.90;;;10.10;60.70;;;;;;4970237;28;20242;-41
2022/01/23 01:38:03;;;;;;;18.07;12.97;;;10.10;60.60;;;;;;4971248;28;20459;-42
2022/01/23 01:40:30;;;;;;;16.97;12.40;;;10.20;60.70;;;;;;4969458;28;20486;-41
2022/01/23 01:42:55;;;;;;;19.00;12.70;;;10.20;60.60;;;;;;4964089;28;20286;-43
2022/01/23 01:45:23;;;;;;;19.77;12.97;;;10.20;60.60;;;;;;4966651;28;20752;-42
2022/01/23 01:47:50;;;;;;;18.70;13.70;;;10.20;60.70;;;;;;4966626;28;20195;-42
2022/01/23 01:50:16;;;;;;;17.50;13.50;;;10.20;60.80;;;;;;4962216;28;20978;-41
2022/01/23 01:52:42;;;;;;;19.27;14.30;;;10.20;60.90;;;;;;4965243;28;20453;-42
2022/01/23 01:55:11;;;;;;;17.60;13.30;;;10.20;60.90;;;;;;4966531;28;20447;-41
2022/01/23 01:57:43;;;;;;;16.17;13.57;;;10.20;60.80;;;;;;4964501;28;20207;-42
2022/01/23 02:00:15;;;;;;;16.70;12.70;;;10.20;60.80;;;;;;4968503;28;20504;-41
2022/01/23 02:03:18;;;;;;;19.17;13.40;;;10.20;60.80;;;;;;4966835;28;20449;-41
2022/01/23 02:08:29;;;;;;;17.10;12.73;;;10.20;60.80;;;;;;4951372;28;20435;-41
2022/01/23 02:11:13;;;;;;;17.23;12.83;;;10.20;61.10;;;;;;4970770;28;20541;-42
2022/01/23 02:14:11;;;;;;;23.23;14.57;;;10.30;61.00;;;;;;4969756;28;21242;-42
2022/01/23 02:57:04;;;;;;;14.83;10.53;;;10.00;61.10;;;;;;4967343;28;20276;-42
2022/01/23 02:59:32;;;;;;;16.57;11.90;;;9.90;62.20;;;;;;4969153;28;20454;-41
2022/01/23 03:04:48;;;;;;;16.23;11.70;;;9.90;62.60;;;;;;4970471;28;20453;-41
2022/01/23 03:13:23;;;;;;;15.20;11.23;;;10.00;60.90;;;;;;4966072;28;20963;-42
2022/01/23 03:27:26;;;;;;;18.17;12.80;;;10.10;61.20;;;;;;4967731;28;20871;-41
2022/01/23 03:29:21;;;;;;;17.23;12.07;;;10.10;61.20;;;;;;4960481;28;21081;-42
2022/01/23 03:34:24;;;;;;;17.47;12.63;;;10.10;60.70;;;;;;4968046;28;20454;-42
2022/01/23 03:36:51;;;;;;;16.53;11.67;;;10.10;60.80;;;;;;4966815;28;20453;-41
2022/01/23 03:39:17;;;;;;;16.37;12.30;;;10.10;60.90;;;;;;4970083;28;20513;-41
2022/01/23 03:41:44;;;;;;;16.77;12.50;;;10.10;60.90;;;;;;4970361;28;20990;-41
2022/01/23 03:44:12;;;;;;;16.27;12.87;;;10.10;60.70;;;;;;4969832;28;20195;-42
2022/01/23 03:49:31;;;;;;;17.53;12.17;;;10.10;60.80;;;;;;4968217;28;20504;-41
2022/01/23 03:52:05;;;;;;;16.03;11.67;;;10.10;60.80;;;;;;4968540;28;20442;-41
2022/01/23 03:54:31;;;;;;;16.53;11.80;;;10.10;60.70;;;;;;4973221;28;20968;-41
2022/01/23 03:56:58;;;;;;;17.90;12.93;;;10.10;61.20;;;;;;4972698;28;20439;-42
2022/01/23 03:59:25;;;;;;;19.30;12.43;;;10.10;61.30;;;;;;4972686;28;20452;-43
2022/01/23 04:01:51;;;;;;;16.83;12.40;;;10.10;61.20;;;;;;4971625;28;21439;-42
2022/01/23 04:04:37;;;;;;;15.30;11.40;;;10.10;61.10;;;;;;4972508;28;20801;-41
2022/01/23 04:07:04;;;;;;;20.10;11.50;;;10.10;60.90;;;;;;4970473;28;20468;-41
2022/01/23 04:09:30;;;;;;;18.00;12.50;;;10.10;61.20;;;;;;4973528;28;20525;-43
2022/01/23 04:11:57;;;;;;;14.90;11.50;;;10.00;61.20;;;;;;4971972;28;20454;-42
2022/01/23 04:14:24;;;;;;;14.17;10.70;;;10.00;61.30;;;;;;4974300;28;20202;-41
2022/01/23 04:19:53;;;;;;;24.60;11.17;;;10.00;61.30;;;;;;4973858;28;20545;-42
2022/01/23 05:00:34;;;;;;;14.20;11.20;;;10.10;60.90;;;;;;4970787;28;20501;-42
2022/01/23 05:05:47;;;;;;;16.13;11.20;;;10.10;60.90;;;;;;4973129;28;20477;-41
2022/01/23 05:08:17;;;;;;;15.53;12.73;;;10.20;61.10;;;;;;4972783;28;20439;-41
2022/01/23 05:10:43;;;;;;;16.70;12.37;;;10.10;60.90;;;;;;4974351;28;21007;-42
2022/01/23 05:13:09;;;;;;;14.97;11.17;;;10.10;61.20;;;;;;4973837;28;20438;-42
2022/01/23 05:15:35;;;;;;;18.43;13.57;;;10.10;61.20;;;;;;4971684;28;20694;-42
2022/01/23 05:18:01;;;;;;;16.80;12.77;;;10.10;61.10;;;;;;4973481;28;20203;-42
2022/01/23 05:20:28;;;;;;;17.20;11.70;;;10.10;60.90;;;;;;4971199;28;20523;-41
2022/01/23 05:23:00;;;;;;;16.27;11.87;;;10.10;60.80;;;;;;4970346;28;20266;-41
2022/01/23 05:25:29;;;;;;;15.57;11.70;;;10.10;60.70;;;;;;4968707;28;20494;-43
2022/01/23 05:27:55;;;;;;;19.53;13.13;;;10.10;60.70;;;;;;4967295;28;20447;-41
2022/01/23 05:30:21;;;;;;;17.47;12.73;;;10.10;60.90;;;;;;4967788;28;20489;-42
2022/01/23 05:32:48;;;;;;;17.77;12.60;;;10.10;61.00;;;;;;4970524;28;20209;-42
2022/01/23 05:35:20;;;;;;;17.83;12.50;;;10.10;61.20;;;;;;4969293;28;20450;-41
2022/01/23 05:37:46;;;;;;;16.57;11.83;;;10.10;61.20;;;;;;4974342;28;20457;-41
2022/01/23 05:40:14;;;;;;;16.53;11.20;;;10.10;61.00;;;;;;4972512;28;20454;-42
2022/01/23 05:42:41;;;;;;;17.00;12.90;;;10.10;61.00;;;;;;4970579;28;20443;-41
2022/01/23 05:45:08;;;;;;;16.93;12.60;;;10.10;61.20;;;;;;4972716;28;20906;-42
2022/01/23 05:47:36;;;;;;;20.47;13.53;;;10.10;61.10;;;;;;4968794;28;20645;-42
2022/01/23 05:50:03;;;;;;;16.80;12.63;;;10.10;61.10;;;;;;4970455;28;20581;-41
2022/01/23 05:52:31;;;;;;;17.70;12.80;;;10.00;60.80;;;;;;4969644;28;20477;-42
2022/01/23 05:54:57;;;;;;;20.90;14.53;;;10.00;60.90;;;;;;4973648;28;20952;-42
2022/01/23 05:57:22;;;;;;;18.83;13.50;;;10.00;60.80;;;;;;4970014;28;20437;-42
2022/01/23 05:59:48;;;;;;;17.87;12.13;;;10.10;61.10;;;;;;4969889;28;20439;-42
2022/01/23 06:02:14;;;;;;;16.30;12.40;;;9.90;62.00;;;;;;4969921;28;20549;-42
2022/01/23 06:04:39;;;;;;;18.73;12.37;;;10.00;61.40;;;;;;4969059;28;20199;-43
2022/01/23 06:07:05;;;;;;;17.37;12.63;;;10.00;61.30;;;;;;4968818;28;20254;-42
2022/01/23 06:09:30;;;;;;;17.27;12.60;;;10.00;61.20;;;;;;4971007;28;20227;-42
2022/01/23 06:11:56;;;;;;;15.20;11.60;;;10.00;61.30;;;;;;4969736;28;20192;-41
2022/01/23 06:14:22;;;;;;;16.20;11.63;;;10.00;61.20;;;;;;4969505;28;20199;-42
2022/01/23 06:16:48;;;;;;;16.87;11.73;;;10.00;61.10;;;;;;4967853;28;20191;-41
2022/01/23 06:19:13;;;;;;;15.83;11.50;;;10.10;61.10;;;;;;4971230;28;20207;-42
2022/01/23 06:21:39;;;;;;;17.00;12.10;;;10.10;61.00;;;;;;4969259;28;20854;-41
2022/01/23 06:24:23;;;;;;;20.20;12.97;;;10.10;61.70;;;;;;4967255;28;20214;-41
2022/01/23 06:26:54;;;;;;;18.80;13.27;;;10.40;62.30;;;;;;4969822;28;20199;-41
2022/01/23 06:29:21;;;;;;;17.77;12.13;;;10.70;61.90;;;;;;4966461;28;20854;-41
2022/01/23 06:31:48;;;;;;;16.67;11.90;;;10.90;61.30;;;;;;4966036;28;20444;-42
2022/01/23 06:34:16;;;;;;;17.57;11.17;;;11.10;61.00;;;;;;4976718;28;20452;-41
2022/01/23 06:36:42;;;;;;;16.60;11.83;;;11.30;59.80;;;;;;4969830;28;20442;-41
2022/01/23 06:39:10;;;;;;;14.00;11.30;;;11.50;59.80;;;;;;4971485;28;20450;-41
2022/01/23 06:41:36;;;;;;;17.33;11.47;;;11.60;59.30;;;;;;4964189;28;20474;-41
2022/01/23 06:44:02;;;;;;;17.13;12.47;;;11.70;58.20;;;;;;4974203;28;20505;-41
2022/01/23 06:46:28;;;;;;;20.70;13.97;;;11.80;58.00;;;;;;4970135;28;20855;-41
2022/01/23 06:48:54;;;;;;;19.60;13.63;;;11.90;57.60;;;;;;4971183;28;20508;-41
2022/01/23 06:51:19;;;;;;;19.60;14.20;;;11.90;56.60;;;;;;4969475;28;20569;-41
2022/01/23 06:53:45;;;;;;;18.50;12.70;;;11.90;56.10;;;;;;4973633;28;20647;-41
2022/01/23 06:56:11;;;;;;;17.93;13.70;;;12.00;56.30;;;;;;4970955;28;20191;-42
2022/01/23 06:58:36;;;;;;;16.87;11.90;;;12.00;56.30;;;;;;4971200;28;20191;-42
2022/01/23 07:01:07;;;;;;;19.57;13.07;;;12.10;56.50;;;;;;4970383;28;20199;-42
2022/01/23 07:03:36;;;;;;;18.43;13.70;;;12.20;56.30;;;;;;4971005;28;20199;-41
2022/01/23 07:06:01;;;;;;;17.80;13.70;;;12.20;55.80;;;;;;4971380;28;20914;-42
2022/01/23 07:08:27;;;;;;;17.23;11.80;;;12.20;55.50;;;;;;4970208;28;20439;-42
2022/01/23 07:10:52;;;;;;;18.27;12.90;;;12.20;55.50;;;;;;4970933;28;20223;-42
2022/01/23 07:13:18;;;;;;;17.67;14.40;;;12.20;55.30;;;;;;4970012;28;20610;-42
2022/01/23 07:15:44;;;;;;;14.60;12.47;;;12.20;55.20;;;;;;4971463;28;20286;-42
2022/01/23 07:18:09;;;;;;;17.53;12.87;;;12.00;54.70;;;;;;4970489;28;20198;-42
2022/01/23 07:20:35;;;;;;;19.73;13.30;;;11.90;55.20;;;;;;4968645;28;20194;-41
2022/01/23 07:23:01;;;;;;;15.20;11.27;;;11.90;55.70;;;;;;4969199;28;20234;-42
2022/01/23 07:25:27;;;;;;;16.20;11.63;;;11.90;56.00;;;;;;4971327;28;20470;-43
2022/01/23 07:27:56;;;;;;;14.90;11.93;;;12.00;56.10;;;;;;4972600;28;20195;-42
2022/01/23 07:30:29;;;;;;;16.57;11.00;;;12.10;56.50;;;;;;4976163;28;20231;-42
2022/01/23 07:32:55;;;;;;;16.10;11.53;;;12.10;56.60;;;;;;4971020;28;20529;-42
2022/01/23 07:35:21;;;;;;;14.73;10.87;;;12.20;56.30;;;;;;4974393;28;20990;-41
2022/01/23 07:37:48;;;;;;;13.47;10.23;;;12.30;56.00;;;;;;4974571;28;20199;-42
2022/01/23 07:40:13;;;;;;;15.80;11.27;;;12.30;55.60;;;;;;4974854;28;20438;-42
2022/01/23 07:42:39;;;;;;;13.43;10.87;;;12.40;55.40;;;;;;4974457;28;20465;-42
2022/01/23 07:45:05;;;;;;;16.60;12.10;;;12.40;55.20;;;;;;4974731;28;20537;-42
2022/01/23 07:47:31;;;;;;;16.10;12.13;;;12.40;55.10;;;;;;4972454;28;20199;-43
2022/01/23 07:49:57;;;;;;;15.63;12.30;;;12.40;55.00;;;;;;4974993;28;20496;-43
2022/01/23 07:52:23;;;;;;;19.90;12.90;;;12.40;54.80;;;;;;4976823;28;20222;-43
2022/01/23 07:54:48;;;;;;;19.20;12.97;;;12.40;54.80;;;;;;4974648;28;20209;-43
2022/01/23 07:57:14;;;;;;;18.77;13.20;;;12.40;54.60;;;;;;4974195;28;20203;-43
2022/01/23 07:59:39;;;;;;;20.67;14.07;;;12.30;54.50;;;;;;4974187;28;20651;-44
2022/01/23 08:02:05;;;;;;;21.83;13.57;;;12.40;55.00;;;;;;4974510;28;20288;-41
2022/01/23 08:04:31;;;;;;;15.80;12.27;;;12.40;54.90;;;;;;4983628;28;20202;-41
2022/01/23 08:07:12;;;;;;;25.80;16.83;;;12.40;54.80;;;;;;4985474;28;20223;-41
2022/01/23 08:09:38;;;;;;;19.43;14.63;;;12.40;54.60;;;;;;4974364;28;20600;-41
2022/01/23 08:12:04;;;;;;;19.40;14.20;;;12.20;54.60;;;;;;4977678;28;20442;-42
2022/01/23 08:14:30;;;;;;;19.80;14.77;;;12.20;55.30;;;;;;4979228;28;20198;-42
2022/01/23 08:16:55;;;;;;;18.90;13.53;;;12.20;55.40;;;;;;4984400;28;20443;-42
2022/01/23 08:19:21;;;;;;;19.40;14.23;;;12.10;55.80;;;;;;4972851;28;20315;-42
2022/01/23 08:21:46;;;;;;;18.23;13.70;;;12.10;55.60;;;;;;4974135;28;20973;-41
2022/01/23 08:24:12;;;;;;;20.47;15.23;;;12.10;55.80;;;;;;4973546;28;20192;-42
2022/01/23 08:26:38;;;;;;;17.80;13.17;;;12.10;56.10;;;;;;4977513;28;20202;-42
2022/01/23 08:29:05;;;;;;;16.50;13.80;;;12.20;56.20;;;;;;4975806;28;20277;-42
2022/01/23 08:31:31;;;;;;;20.13;13.27;;;12.20;55.70;;;;;;4973246;28;20358;-42
2022/01/23 08:33:56;;;;;;;20.47;13.07;;;12.20;55.50;;;;;;4973084;28;20997;-42
2022/01/23 08:36:22;;;;;;;18.63;13.00;;;12.10;55.30;;;;;;4973851;28;20307;-42
2022/01/23 08:38:48;;;;;;;21.90;14.73;;;12.10;55.50;;;;;;4974340;28;20330;-42
2022/01/23 08:43:48;;;;;;;19.30;14.53;;;12.20;55.80;;;;;;4972420;28;20658;-42
2022/01/23 08:46:14;;;;;;;20.37;15.10;;;12.20;55.90;;;;;;4973845;28;20438;-42
2022/01/23 08:48:41;;;;;;;20.70;14.00;;;12.30;55.90;;;;;;4974143;28;20950;-42
2022/01/23 08:51:07;;;;;;;25.43;15.33;;;12.40;55.80;;;;;;4973412;28;20434;-42
2022/01/23 08:53:33;;;;;;;25.13;16.43;;;12.40;55.60;;;;;;4973219;28;20446;-42
2022/01/23 08:55:58;;;;;;;25.00;16.90;;;12.50;55.30;;;;;;4974226;28;20435;-42
2022/01/23 08:58:24;;;;;;;20.27;16.07;;;12.40;55.00;;;;;;4973665;28;20202;-42
2022/01/23 09:00:50;;;;;;;23.37;16.40;;;12.40;55.30;;;;;;4973865;28;20683;-42
2022/01/23 09:03:15;;;;;;;22.80;16.10;;;12.30;55.70;;;;;;4972452;28;20219;-42
2022/01/23 09:05:41;;;;;;;20.07;15.23;;;12.40;55.80;;;;;;4974398;28;20645;-42
2022/01/23 09:08:06;;;;;;;20.57;15.60;;;12.40;55.80;;;;;;4973479;28;20203;-42
2022/01/23 09:10:40;;;;;;;22.30;14.63;;;12.50;56.00;;;;;;4972145;28;20745;-42
2022/01/23 09:13:14;;;;;;;20.93;14.30;;;12.60;55.60;;;;;;4972251;28;20199;-42
2022/01/23 09:15:40;;;;;;;23.27;16.20;;;12.60;55.20;;;;;;4977022;28;20537;-42
2022/01/23 09:18:06;;;;;;;21.93;15.97;;;12.70;55.20;;;;;;4973120;28;20526;-42
2022/01/23 09:20:31;;;;;;;17.50;14.70;;;12.70;54.90;;;;;;4973429;28;20206;-42
2022/01/23 09:22:57;;;;;;;22.00;14.83;;;12.70;54.70;;;;;;4972471;28;20203;-42
2022/01/23 09:25:23;;;;;;;20.97;15.53;;;12.70;54.80;;;;;;4973529;28;20204;-42
2022/01/23 09:27:49;;;;;;;20.50;14.87;;;12.70;55.20;;;;;;4972983;28;20205;-42
2022/01/23 09:30:19;;;;;;;25.60;17.57;;;12.80;55.20;;;;;;4973379;28;20227;-42
2022/01/23 09:32:46;;;;;;;19.77;15.73;;;12.80;54.80;;;;;;4972643;28;20213;-42
2022/01/23 09:35:11;;;;;;;20.63;14.70;;;12.80;54.40;;;;;;4973206;28;20438;-42
2022/01/23 09:37:37;;;;;;;18.90;15.23;;;12.80;54.50;;;;;;4977461;28;20441;-42
2022/01/23 09:40:05;;;;;;;20.80;15.93;;;12.80;54.30;;;;;;4976812;28;20222;-42
2022/01/23 09:42:41;;;;;;;21.80;15.43;;;12.80;54.10;;;;;;4971987;28;20227;-42
2022/01/23 09:45:09;;;;;;;23.73;15.97;;;12.80;54.30;;;;;;4972458;28;20446;-42
2022/01/23 09:47:36;;;;;;;23.63;16.33;;;12.80;54.50;;;;;;4972055;28;20450;-42
2022/01/23 09:50:03;;;;;;;22.67;16.10;;;12.80;54.70;;;;;;4972328;28;20993;-42
2022/01/23 09:52:32;;;;;;;21.70;16.37;;;12.80;54.30;;;;;;4972198;28;20450;-42
2022/01/23 09:55:01;;;;;;;22.23;16.67;;;12.90;54.30;;;;;;4972488;28;20446;-42
2022/01/23 09:57:30;;;;;;;22.47;16.00;;;12.90;54.50;;;;;;4972209;28;20563;-42
2022/01/23 09:59:58;;;;;;;27.70;17.07;;;13.00;54.10;;;;;;4972328;28;20973;-42
2022/01/23 10:02:24;;;;;;;23.50;18.20;;;13.00;54.10;;;;;;4971478;28;20541;-42
2022/01/23 10:04:53;;;;;;;23.17;16.73;;;12.90;54.40;;;;;;4970558;28;20993;-42
2022/01/23 10:07:21;;;;;;;24.60;15.30;;;12.80;54.60;;;;;;4971188;28;20188;-42
2022/01/23 10:09:52;;;;;;;25.20;17.40;;;12.80;54.60;;;;;;4972224;28;20489;-42
2022/01/23 10:12:19;;;;;;;24.97;17.27;;;12.80;54.60;;;;;;4973438;28;20450;-42
2022/01/23 10:14:45;;;;;;;24.10;16.63;;;12.80;54.50;;;;;;4969024;28;20964;-42
2022/01/23 10:17:10;;;;;;;21.00;15.57;;;12.80;54.50;;;;;;4971193;28;20438;-42
2022/01/23 10:19:37;;;;;;;22.43;16.80;;;12.80;54.70;;;;;;4971453;28;20222;-42
2022/01/23 10:22:05;;;;;;;23.30;17.00;;;12.70;55.10;;;;;;4970931;28;20199;-42
2022/01/23 10:24:31;;;;;;;23.53;16.23;;;12.80;55.30;;;;;;4968389;28;20529;-42
2022/01/23 10:26:59;;;;;;;23.23;16.17;;;12.80;55.20;;;;;;4971973;28;20534;-42
2022/01/23 10:29:29;;;;;;;22.20;15.67;;;12.90;55.20;;;;;;4971278;28;20483;-42
2022/01/23 10:32:08;;;;;;;15.67;11.90;;;13.00;55.20;;;;;;4969426;28;20453;-42
2022/01/23 10:34:54;;;;;;;16.03;12.23;;;13.00;54.20;;;;;;4969944;28;20497;-42
2022/01/23 10:37:23;;;;;;;20.50;15.03;;;13.00;53.00;;;;;;4970199;28;20447;-42
2022/01/23 10:39:49;;;;;;;14.67;12.67;;;12.90;53.00;;;;;;4972577;28;20934;-42
2022/01/23 10:42:49;;;;;;;18.17;13.53;;;12.80;53.00;;;;;;4970353;28;20477;-42
2022/01/23 10:48:26;;;;;;;18.77;13.80;;;12.50;53.90;;;;;;4967680;28;20996;-42
2022/01/23 10:51:11;;;;;;;20.07;16.03;;;12.60;54.00;;;;;;4970977;28;20871;-42
2022/01/23 10:53:55;;;;;;;18.03;14.40;;;12.80;54.20;;;;;;4968161;28;20447;-42
2022/01/23 10:56:20;;;;;;;15.90;12.20;;;12.90;53.80;;;;;;4967344;28;20442;-42
2022/01/23 10:59:07;;;;;;;17.73;14.10;;;12.70;54.00;;;;;;4967186;28;20513;-42
2022/01/23 11:01:32;;;;;;;19.13;14.27;;;12.80;54.20;;;;;;4968770;28;20195;-43
2022/01/23 11:04:04;;;;;;;15.60;13.30;;;12.90;54.10;;;;;;4971003;28;20430;-42
2022/01/23 11:06:30;;;;;;;13.93;11.13;;;13.00;53.20;;;;;;4970349;28;20253;-42
2022/01/23 11:09:09;;;;;;;15.10;11.80;;;12.90;53.80;;;;;;4971850;28;20946;-42
2022/01/23 11:11:45;;;;;;;13.47;10.77;;;13.00;53.50;;;;;;4967172;28;20198;-42
2022/01/23 11:17:23;;;;;;;13.33;9.80;;;13.00;53.00;;;;;;4975201;28;20555;-42
2022/01/23 11:19:50;;;;;;;15.63;10.90;;;12.70;53.40;;;;;;4969278;28;20442;-42
2022/01/23 11:22:21;;;;;;;13.33;9.80;;;12.80;53.70;;;;;;4971038;28;20954;-42
2022/01/23 11:24:48;;;;;;;17.20;11.77;;;12.80;53.80;;;;;;4973117;28;20434;-42
2022/01/23 11:27:20;;;;;;;20.27;13.50;;;12.90;53.50;;;;;;4971621;28;20805;-42
2022/01/23 11:30:13;;;;;;;12.60;9.63;;;12.90;53.10;;;;;;4969777;28;20561;-42
2022/01/23 11:32:41;;;;;;;13.10;9.77;;;13.00;53.00;;;;;;4968526;28;20458;-42
2022/01/23 11:35:16;;;;;;;15.37;11.07;;;12.90;53.20;;;;;;4972127;28;20479;-42
2022/01/23 11:37:47;;;;;;;14.27;10.93;;;12.90;52.50;;;;;;4970132;28;20846;-42
2022/01/23 11:40:32;;;;;;;11.80;9.70;;;12.60;53.40;;;;;;4970451;28;20945;-43
2022/01/23 11:53:54;;;;;;;13.63;9.40;;;11.70;54.30;;;;;;4970528;28;20438;-43
2022/01/23 11:56:28;;;;;;;16.43;10.77;;;11.80;55.20;;;;;;4968436;28;20438;-44
2022/01/23 11:59:42;;;;;;;12.97;11.27;;;11.90;54.80;;;;;;4985408;28;20810;-42
2022/01/23 12:02:11;;;;;;;12.10;9.03;;;12.00;54.90;;;;;;4965937;28;20443;-43
2022/01/23 12:04:37;;;;;;;13.03;10.43;;;12.30;54.40;;;;;;4970893;28;20506;-43
2022/01/23 12:07:10;;;;;;;14.60;10.80;;;12.10;53.40;;;;;;4969420;28;20439;-43
2022/01/23 12:09:35;;;;;;;15.40;10.63;;;12.00;54.30;;;;;;4970120;28;20482;-42
2022/01/23 12:13:03;;;;;;;12.33;9.60;;;11.90;54.10;;;;;;4972129;28;20474;-43
2022/01/23 12:18:21;;;;;;;10.70;8.10;;;11.50;56.20;;;;;;4965535;28;20953;-42
2022/01/23 12:20:49;;;;;;;10.80;8.57;;;11.70;55.50;;;;;;4973948;28;21001;-42
2022/01/23 12:23:15;;;;;;;13.17;10.00;;;12.00;55.00;;;;;;4973613;28;20435;-44
2022/01/23 12:25:51;;;;;;;13.80;9.80;;;12.20;54.70;;;;;;4971288;28;20537;-43
2022/01/23 12:28:27;;;;;;;10.63;8.50;;;12.40;54.10;;;;;;4973326;28;20924;-43
2022/01/23 12:31:17;;;;;;;9.10;7.60;;;12.40;53.60;;;;;;4973687;28;20485;-42
2022/01/23 12:33:47;;;;;;;8.43;6.50;;;12.50;53.20;;;;;;4973885;28;20430;-43
2022/01/23 12:36:13;;;;;;;7.23;6.10;;;12.50;52.70;;;;;;4972172;28;20446;-43
2022/01/23 12:38:50;;;;;;;7.27;5.50;;;12.50;50.90;;;;;;4973504;28;20449;-44
2022/01/23 12:41:36;;;;;;;5.00;4.50;;;12.40;49.50;;;;;;4967039;28;20639;-43
2022/01/23 12:44:06;;;;;;;5.90;4.80;;;12.10;49.40;;;;;;4974421;28;20485;-44
2022/01/23 12:46:36;;;;;;;9.27;6.80;;;12.00;49.30;;;;;;4972981;28;20443;-43
2022/01/23 12:49:25;;;;;;;16.40;8.50;;;12.30;50.90;;;;;;4977134;28;20444;-42
2022/01/23 12:52:05;;;;;;;11.13;6.27;;;12.50;53.10;;;;;;4972598;28;20446;-42
2022/01/23 12:54:33;;;;;;;4.23;3.60;;;12.90;53.80;;;;;;4973338;28;20465;-42
2022/01/23 12:57:12;;;;;;;4.90;3.23;;;13.00;48.70;;;;;;4970866;28;20998;-42
2022/01/23 12:59:38;;;;;;;5.70;3.83;;;13.20;48.20;;;;;;4970112;28;20451;-43
2022/01/23 13:02:13;;;;;;;8.83;5.97;;;13.30;47.10;;;;;;4973086;28;20446;-42
2022/01/23 13:04:45;;;;;;;7.73;6.33;;;13.40;47.20;;;;;;4972605;28;21200;-42
2022/01/23 13:13:15;;;;;;;4.00;3.30;;;13.30;46.00;;;;;;4946117;28;20431;-43
2022/01/23 13:15:58;;;;;;;4.17;3.13;;;13.20;44.70;;;;;;4975783;28;20449;-42
2022/01/23 13:26:58;;;;;;;2.83;2.63;;;12.40;45.80;;;;;;4972200;28;20941;-42
2022/01/23 13:31:58;;;;;;;3.33;2.93;;;12.80;45.60;;;;;;4969040;28;20450;-42
2022/01/23 13:34:25;;;;;;;4.70;3.50;;;13.00;45.90;;;;;;4974924;28;20961;-43
2022/01/23 13:36:55;;;;;;;3.00;2.80;;;13.10;45.30;;;;;;4975617;28;20450;-42
2022/01/23 13:39:32;;;;;;;2.90;1.90;;;13.10;44.40;;;;;;4978902;28;20475;-43
2022/01/23 13:42:08;;;;;;;3.23;2.27;;;13.20;44.30;;;;;;4969756;28;20502;-43
2022/01/23 13:52:57;;;;;;;3.43;1.83;;;12.80;43.80;;;;;;4969719;28;20435;-43
2022/01/23 13:58:35;;;;;;;5.77;2.87;;;12.90;44.60;;;;;;4972059;28;20477;-43
2022/01/23 14:01:03;;;;;;;2.20;2.10;;;13.10;45.50;;;;;;4970832;28;21059;-42
2022/01/23 14:03:29;;;;;;;2.60;2.40;;;13.30;44.60;;;;;;4971531;28;20454;-43
2022/01/23 14:05:55;;;;;;;4.17;2.80;;;13.20;45.40;;;;;;4971861;28;21369;-43
2022/01/23 14:08:21;;;;;;;4.70;2.73;;;13.20;44.40;;;;;;4971112;28;20191;-42
2022/01/23 14:10:52;;;;;;;5.23;3.37;;;13.10;44.40;;;;;;4975074;28;20497;-43
2022/01/23 14:13:19;;;;;;;2.80;2.30;;;13.10;44.90;;;;;;4971694;28;20237;-43
2022/01/23 14:15:53;;;;;;;4.00;3.17;;;12.90;45.10;;;;;;4975753;28;20534;-43
2022/01/23 14:18:23;;;;;;;3.23;2.80;;;13.00;45.60;;;;;;4971712;28;20434;-43
2022/01/23 14:21:05;;;;;;;3.47;3.13;;;13.00;45.30;;;;;;4970954;28;20810;-44
2022/01/23 14:23:31;;;;;;;3.10;2.80;;;13.10;45.20;;;;;;4971821;28;20446;-44
2022/01/23 14:26:00;;;;;;;2.90;2.60;;;13.20;44.80;;;;;;4979286;28;20430;-43
2022/01/23 14:28:34;;;;;;;2.90;2.10;;;13.20;45.40;;;;;;4970555;28;20434;-43
2022/01/23 14:31:11;;;;;;;3.00;2.20;;;13.10;45.10;;;;;;4971646;28;20477;-44
2022/01/23 14:33:37;;;;;;;2.53;2.33;;;13.10;44.90;;;;;;4972705;28;20449;-43
2022/01/23 14:36:17;;;;;;;2.83;2.10;;;13.10;44.80;;;;;;4969129;28;20789;-42
2022/01/23 14:38:58;;;;;;;2.53;2.00;;;13.10;45.60;;;;;;4971785;28;20460;-43
2022/01/23 14:41:26;;;;;;;3.63;2.27;;;13.00;45.00;;;;;;4977049;28;20536;-42
2022/01/23 14:43:52;;;;;;;2.60;2.30;;;13.00;45.30;;;;;;4967729;28;20446;-42
2022/01/23 14:46:18;;;;;;;2.70;2.50;;;13.00;45.40;;;;;;4971185;28;20505;-43
2022/01/23 14:48:48;;;;;;;2.37;2.17;;;12.90;45.30;;;;;;4971395;28;20617;-42
2022/01/23 14:51:19;;;;;;;3.40;2.27;;;12.80;45.20;;;;;;4969427;28;20749;-42
2022/01/23 14:53:45;;;;;;;3.80;2.30;;;12.70;44.90;;;;;;4971397;28;20878;-42
2022/01/23 14:56:12;;;;;;;3.30;2.80;;;12.70;45.20;;;;;;4970504;28;20435;-42
2022/01/23 14:58:38;;;;;;;2.73;2.10;;;12.70;45.20;;;;;;4971925;28;20454;-42
2022/01/23 15:01:10;;;;;;;2.03;1.83;;;12.70;45.20;;;;;;4971218;28;20450;-42
2022/01/23 15:03:37;;;;;;;2.50;2.03;;;12.70;46.00;;;;;;4970349;28;20646;-42
2022/01/23 15:06:04;;;;;;;2.43;1.87;;;12.70;45.40;;;;;;4971040;28;20435;-42
2022/01/23 15:08:30;;;;;;;2.40;2.20;;;12.70;45.40;;;;;;4972507;28;20493;-42
2022/01/23 15:10:59;;;;;;;2.30;1.90;;;12.60;45.40;;;;;;4970441;28;21071;-42
2022/01/23 15:13:27;;;;;;;2.63;2.00;;;12.60;45.60;;;;;;4965718;28;20518;-42
2022/01/23 15:15:54;;;;;;;3.00;2.07;;;12.60;46.10;;;;;;4974202;28;20445;-42
2022/01/23 15:18:21;;;;;;;2.33;2.13;;;12.60;45.40;;;;;;4971022;28;20529;-42
2022/01/23 15:20:47;;;;;;;1.87;1.67;;;12.60;45.40;;;;;;4970909;28;20496;-42
2022/01/23 15:23:14;;;;;;;2.47;1.73;;;12.50;45.50;;;;;;4968105;28;20443;-42
2022/01/23 15:25:40;;;;;;;3.17;2.20;;;12.50;45.50;;;;;;4970627;28;20453;-42
2022/01/23 15:28:06;;;;;;;3.47;2.37;;;12.40;45.60;;;;;;4971754;28;20451;-42
2022/01/23 15:30:33;;;;;;;1.83;1.73;;;12.40;45.70;;;;;;4970775;28;20517;-42
2022/01/23 15:33:00;;;;;;;5.60;1.80;;;12.40;45.70;;;;;;4970605;28;20530;-42
2022/01/23 15:35:27;;;;;;;2.27;2.03;;;12.40;46.20;;;;;;4971497;28;20439;-42
2022/01/23 15:37:54;;;;;;;1.80;1.70;;;12.40;45.80;;;;;;4976268;28;20434;-42
2022/01/23 15:40:21;;;;;;;10.70;7.20;;;12.40;45.80;;;;;;4976607;28;21257;-42
2022/01/23 15:42:50;;;;;;;2.80;2.60;;;12.40;45.80;;;;;;4972600;28;20440;-42
2022/01/23 15:45:17;;;;;;;2.50;2.13;;;12.40;45.90;;;;;;4970875;28;20774;-42
2022/01/23 15:47:43;;;;;;;2.30;1.97;;;12.20;45.60;;;;;;4970837;28;20447;-42
2022/01/23 15:50:11;;;;;;;3.37;2.90;;;11.80;44.70;;;;;;4973884;28;20505;-43
2022/01/23 15:52:38;;;;;;;3.33;2.50;;;11.80;45.20;;;;;;4972793;28;20203;-42
2022/01/23 15:55:07;;;;;;;3.07;2.77;;;11.60;45.80;;;;;;4974322;28;20900;-42
2022/01/23 15:57:33;;;;;;;4.10;3.00;;;11.70;45.80;;;;;;4972525;28;20534;-42